createdAt,value
2023-04-25T00:00:22.066Z,1.17
2023-04-25T00:00:54.378Z,1.20
2023-04-25T00:01:26.766Z,1.10
2023-04-25T00:02:01.694Z,1.33
2023-04-25T00:02:36.249Z,1.13
2023-04-25T00:03:10.283Z,1.30
2023-04-25T00:03:45.630Z,1.17
2023-04-25T00:04:18.439Z,1.30
2023-04-25T00:04:51.065Z,1.30
2023-04-25T00:05:26.187Z,1.30
2023-04-25T00:05:58.670Z,1.40
2023-04-25T00:06:31.217Z,1.20
2023-04-25T00:07:06.611Z,1.60
2023-04-25T00:07:39.026Z,1.13
2023-04-25T00:08:11.489Z,1.03
2023-04-25T00:08:46.444Z,1.30
2023-04-25T00:09:18.815Z,1.03
2023-04-25T00:09:51.826Z,1.07
2023-04-25T00:10:26.835Z,1.20
2023-04-25T00:10:59.459Z,1.17
2023-04-25T00:11:32.165Z,1.10
2023-04-25T00:12:10.554Z,0.90
2023-04-25T00:12:43.108Z,0.97
2023-04-25T00:13:18.670Z,1.30
2023-04-25T00:13:51.934Z,1.07
2023-04-25T00:14:24.309Z,1.27
2023-04-25T00:15:01.168Z,0.97
2023-04-25T00:15:33.540Z,1.00
2023-04-25T00:16:06.800Z,0.90
2023-04-25T00:16:42.492Z,1.30
2023-04-25T00:17:14.909Z,1.00
2023-04-25T00:17:47.305Z,1.20
2023-04-25T00:18:22.408Z,1.10
2023-04-25T00:18:55.062Z,1.20
2023-04-25T00:19:29.607Z,1.07
2023-04-25T00:20:06.197Z,1.00
2023-04-25T00:20:38.593Z,1.00
2023-04-25T00:21:11.125Z,1.00
2023-04-25T00:21:47.434Z,1.10
2023-04-25T00:22:19.887Z,1.20
2023-04-25T00:22:53.942Z,0.80
2023-04-25T00:23:28.967Z,0.90
2023-04-25T00:24:01.737Z,1.03
2023-04-25T00:24:34.086Z,0.93
2023-04-25T00:25:10.017Z,1.23
2023-04-25T00:25:42.343Z,1.30
2023-04-25T00:26:14.671Z,0.73
2023-04-25T00:26:49.664Z,1.00
2023-04-25T00:27:24.610Z,1.20
2023-04-25T00:27:57.006Z,1.30
2023-04-25T00:28:31.992Z,0.80
2023-04-25T00:29:04.548Z,1.07
2023-04-25T00:29:36.935Z,0.90
2023-04-25T00:30:13.166Z,1.10
2023-04-25T00:30:45.599Z,0.90
2023-04-25T00:31:18.074Z,1.07
2023-04-25T00:31:53.134Z,1.30
2023-04-25T00:32:25.701Z,0.93
2023-04-25T00:32:58.357Z,1.07
2023-04-25T00:33:33.409Z,0.90
2023-04-25T00:34:05.946Z,1.10
2023-04-25T00:34:38.385Z,1.00
2023-04-25T00:35:13.513Z,1.00
2023-04-25T00:35:45.902Z,1.10
2023-04-25T00:36:19.371Z,1.10
2023-04-25T00:36:54.443Z,1.10
2023-04-25T00:37:26.905Z,1.07
2023-04-25T00:37:59.299Z,1.00
2023-04-25T00:38:34.417Z,1.10
2023-04-25T00:39:07.671Z,0.90
2023-04-25T00:39:40.230Z,1.10
2023-04-25T00:40:13.011Z,0.90
2023-04-25T00:40:47.998Z,1.23
2023-04-25T00:41:20.476Z,0.90
2023-04-25T00:41:55.698Z,0.93
2023-04-25T00:42:33.672Z,1.00
2023-04-25T00:43:07.046Z,1.03
2023-04-25T00:43:39.626Z,1.20
2023-04-25T00:44:16.266Z,1.03
2023-04-25T00:44:49.423Z,1.00
2023-04-25T00:45:22.289Z,1.00
2023-04-25T00:45:58.822Z,1.23
2023-04-25T00:46:32.295Z,1.10
2023-04-25T00:47:04.936Z,1.20
2023-04-25T00:47:40.366Z,1.13
2023-04-25T00:48:13.161Z,1.50
2023-04-25T00:48:45.499Z,1.50
2023-04-25T00:49:20.529Z,1.07
2023-04-25T00:49:54.448Z,1.13
2023-04-25T00:50:26.961Z,1.00
2023-04-25T00:51:00.189Z,1.60
2023-04-25T00:51:35.228Z,1.03
2023-04-25T00:52:07.718Z,1.27
2023-04-25T00:52:41.751Z,1.20
2023-04-25T00:53:16.731Z,1.23
2023-04-25T00:53:49.550Z,1.30
2023-04-25T00:54:22.018Z,1.00
2023-04-25T00:54:57.091Z,1.40
2023-04-25T00:55:29.614Z,1.17
2023-04-25T00:56:01.989Z,1.30
2023-04-25T00:56:37.039Z,1.30
2023-04-25T00:57:09.537Z,1.20
2023-04-25T00:57:44.630Z,1.27
2023-04-25T00:58:19.591Z,1.23
2023-04-25T00:58:54.162Z,1.20
2023-04-25T00:59:27.115Z,1.10
2023-04-25T01:00:02.309Z,1.20
2023-04-25T01:00:36.007Z,1.13
2023-04-25T01:01:08.550Z,1.43
2023-04-25T01:01:45.170Z,0.97
2023-04-25T01:02:18.007Z,0.87
2023-04-25T01:02:51.616Z,1.30
2023-04-25T01:03:27.571Z,1.30
2023-04-25T01:04:00.795Z,1.27
2023-04-25T01:04:36.122Z,0.90
2023-04-25T01:05:09.817Z,1.10
2023-04-25T01:05:42.409Z,1.33
2023-04-25T01:06:17.382Z,1.23
2023-04-25T01:06:50.142Z,1.20
2023-04-25T01:07:22.578Z,1.03
2023-04-25T01:07:57.627Z,1.40
2023-04-25T01:08:29.996Z,1.03
2023-04-25T01:09:05.016Z,1.30
2023-04-25T01:09:40.049Z,1.10
2023-04-25T01:10:12.512Z,1.40
2023-04-25T01:10:44.961Z,1.30
2023-04-25T01:11:19.914Z,1.13
2023-04-25T01:11:52.258Z,1.30
2023-04-25T01:12:24.869Z,1.20
2023-04-25T01:13:02.641Z,1.00
2023-04-25T01:13:35.517Z,1.30
2023-04-25T01:14:10.501Z,1.20
2023-04-25T01:14:42.890Z,1.10
2023-04-25T01:15:15.308Z,1.30
2023-04-25T01:15:50.286Z,1.33
2023-04-25T01:16:25.060Z,1.20
2023-04-25T01:16:57.537Z,1.40
2023-04-25T01:17:33.371Z,1.33
2023-04-25T01:18:07.115Z,1.30
2023-04-25T01:18:40.507Z,1.50
2023-04-25T01:19:15.978Z,1.30
2023-04-25T01:19:50.115Z,1.40
2023-04-25T01:20:24.179Z,1.60
2023-04-25T01:20:59.475Z,1.30
2023-04-25T01:21:34.755Z,1.50
2023-04-25T01:22:07.082Z,1.33
2023-04-25T01:22:42.138Z,1.53
2023-04-25T01:23:15.330Z,1.30
2023-04-25T01:23:48.215Z,1.10
2023-04-25T01:24:23.460Z,1.40
2023-04-25T01:24:56.248Z,1.27
2023-04-25T01:25:28.708Z,1.20
2023-04-25T01:26:04.699Z,1.10
2023-04-25T01:26:37.527Z,1.33
2023-04-25T01:27:10.460Z,1.20
2023-04-25T01:27:45.591Z,1.40
2023-04-25T01:28:18.086Z,1.03
2023-04-25T01:28:50.865Z,1.20
2023-04-25T01:29:28.298Z,1.20
2023-04-25T01:30:01.405Z,1.20
2023-04-25T01:30:33.787Z,1.27
2023-04-25T01:31:09.493Z,1.07
2023-04-25T01:31:42.030Z,1.30
2023-04-25T01:32:15.612Z,1.30
2023-04-25T01:32:51.808Z,1.50
2023-04-25T01:33:24.236Z,2.07
2023-04-25T01:33:56.673Z,1.40
2023-04-25T01:34:31.903Z,1.50
2023-04-25T01:35:04.645Z,1.40
2023-04-25T01:35:37.080Z,1.03
2023-04-25T01:36:12.250Z,1.33
2023-04-25T01:36:47.807Z,1.17
2023-04-25T01:37:22.806Z,0.90
2023-04-25T01:37:55.190Z,1.07
2023-04-25T01:38:27.686Z,1.23
2023-04-25T01:39:03.182Z,0.90
2023-04-25T01:39:35.579Z,1.13
2023-04-25T01:40:09.251Z,0.90
2023-04-25T01:40:44.747Z,0.80
2023-04-25T01:41:18.203Z,1.30
2023-04-25T01:41:50.729Z,0.90
2023-04-25T01:42:23.165Z,1.17
2023-04-25T01:42:58.719Z,1.17
2023-04-25T01:43:31.384Z,1.00
2023-04-25T01:44:03.896Z,0.83
2023-04-25T01:44:40.429Z,1.07
2023-04-25T01:45:12.980Z,1.10
2023-04-25T01:45:45.513Z,1.33
2023-04-25T01:46:21.316Z,1.23
2023-04-25T01:46:53.752Z,0.90
2023-04-25T01:47:26.173Z,1.20
2023-04-25T01:48:01.328Z,0.93
2023-04-25T01:48:33.948Z,1.00
2023-04-25T01:49:06.482Z,1.03
2023-04-25T01:49:41.760Z,1.10
2023-04-25T01:50:14.403Z,1.20
2023-04-25T01:50:47.399Z,1.00
2023-04-25T01:51:22.493Z,1.00
2023-04-25T01:51:57.713Z,1.10
2023-04-25T01:52:30.149Z,1.20
2023-04-25T01:53:05.817Z,1.00
2023-04-25T01:53:38.308Z,1.10
2023-04-25T01:54:12.348Z,0.90
2023-04-25T01:54:47.363Z,1.10
2023-04-25T01:55:20.912Z,0.97
2023-04-25T01:56:09.363Z,0.80
2023-04-25T01:56:41.854Z,0.90
2023-04-25T01:57:16.646Z,1.00
2023-04-25T01:57:52.700Z,1.10
2023-04-25T01:58:30.125Z,1.00
2023-04-25T01:59:16.799Z,1.03
2023-04-25T01:59:52.331Z,1.07
2023-04-25T02:00:44.667Z,1.00
2023-04-25T02:01:19.854Z,1.00
2023-04-25T02:02:05.048Z,0.90
2023-04-25T02:02:38.901Z,0.83
2023-04-25T02:03:17.202Z,0.90
2023-04-25T02:03:50.800Z,0.90
2023-04-25T02:04:37.772Z,0.87
2023-04-25T02:05:10.604Z,0.90
2023-04-25T02:05:45.640Z,0.90
2023-04-25T02:06:22.053Z,1.03
2023-04-25T02:06:58.198Z,1.00
2023-04-25T02:07:37.950Z,1.03
2023-04-25T02:08:13.443Z,1.10
2023-04-25T02:08:45.808Z,0.90
2023-04-25T02:09:19.455Z,1.03
2023-04-25T02:09:59.623Z,1.13
2023-04-25T02:10:34.691Z,1.03
2023-04-25T02:11:19.990Z,1.00
2023-04-25T02:12:12.797Z,0.90
2023-04-25T02:13:08.346Z,0.90
2023-04-25T02:14:03.604Z,0.97
2023-04-25T02:14:45.146Z,1.07
2023-04-25T02:15:27.676Z,1.03
2023-04-25T02:16:04.431Z,0.90
2023-04-25T02:16:37.278Z,1.10
2023-04-25T02:17:13.801Z,0.80
2023-04-25T02:17:46.522Z,0.80
2023-04-25T02:18:19.094Z,1.07
2023-04-25T02:18:54.499Z,1.27
2023-04-25T02:19:26.952Z,0.80
2023-04-25T02:19:59.415Z,1.00
2023-04-25T02:20:34.492Z,0.90
2023-04-25T02:21:08.077Z,1.00
2023-04-25T02:21:40.429Z,0.97
2023-04-25T02:22:18.099Z,1.00
2023-04-25T02:22:52.340Z,0.80
2023-04-25T02:23:26.468Z,1.00
2023-04-25T02:24:01.622Z,0.90
2023-04-25T02:24:36.089Z,0.97
2023-04-25T02:25:10.329Z,0.93
2023-04-25T02:25:45.643Z,0.97
2023-04-25T02:26:17.985Z,1.27
2023-04-25T02:26:50.788Z,1.27
2023-04-25T02:27:25.791Z,1.07
2023-04-25T02:27:58.155Z,1.00
2023-04-25T02:28:30.758Z,1.10
2023-04-25T02:29:06.045Z,0.90
2023-04-25T02:29:38.431Z,1.10
2023-04-25T02:30:11.324Z,0.90
2023-04-25T02:30:46.451Z,1.10
2023-04-25T02:31:18.934Z,0.90
2023-04-25T02:31:51.448Z,1.20
2023-04-25T02:32:26.563Z,0.87
2023-04-25T02:32:59.128Z,0.97
2023-04-25T02:33:31.552Z,0.93
2023-04-25T02:34:06.560Z,1.00
2023-04-25T02:34:42.701Z,1.10
2023-04-25T02:35:15.153Z,1.00
2023-04-25T02:35:50.149Z,1.07
2023-04-25T02:36:22.535Z,0.87
2023-04-25T02:36:54.893Z,0.93
2023-04-25T02:37:32.483Z,0.90
2023-04-25T02:38:04.817Z,1.00
2023-04-25T02:38:39.775Z,0.70
2023-04-25T02:39:14.746Z,1.00
2023-04-25T02:39:47.134Z,1.07
2023-04-25T02:40:19.597Z,1.00
2023-04-25T02:40:54.572Z,0.90
2023-04-25T02:41:26.934Z,0.80
2023-04-25T02:42:02.246Z,0.87
2023-04-25T02:42:38.631Z,0.80
2023-04-25T02:43:10.991Z,0.93
2023-04-25T02:43:43.381Z,0.90
2023-04-25T02:44:19.125Z,0.93
2023-04-25T02:44:51.604Z,0.80
2023-04-25T02:45:23.997Z,1.03
2023-04-25T02:45:58.950Z,0.90
2023-04-25T02:46:38.973Z,0.80
2023-04-25T02:47:12.292Z,0.97
2023-04-25T02:47:47.299Z,1.00
2023-04-25T02:48:19.656Z,0.80
2023-04-25T02:48:52.015Z,0.73
2023-04-25T02:49:26.985Z,0.80
2023-04-25T02:49:59.896Z,0.70
2023-04-25T02:50:32.273Z,0.83
2023-04-25T02:51:07.470Z,0.90
2023-04-25T02:51:39.855Z,1.10
2023-04-25T02:52:13.052Z,0.80
2023-04-25T02:52:51.265Z,0.90
2023-04-25T02:53:28.885Z,1.00
2023-04-25T02:54:01.374Z,0.90
2023-04-25T02:54:36.733Z,0.70
2023-04-25T02:55:10.368Z,0.70
2023-04-25T02:55:47.260Z,0.80
2023-04-25T02:56:19.714Z,0.70
2023-04-25T02:56:52.156Z,1.07
2023-04-25T02:57:33.286Z,0.80
2023-04-25T02:58:05.884Z,0.83
2023-04-25T02:58:48.618Z,0.80
2023-04-25T02:59:23.738Z,1.07
2023-04-25T02:59:56.110Z,0.90
2023-04-25T03:00:28.790Z,0.90
2023-04-25T03:01:03.900Z,0.90
2023-04-25T03:01:36.289Z,0.90
2023-04-25T03:02:08.989Z,1.07
2023-04-25T03:02:44.428Z,0.90
2023-04-25T03:03:19.156Z,0.90
2023-04-25T03:03:52.182Z,1.27
2023-04-25T03:04:27.714Z,1.03
2023-04-25T03:05:00.201Z,1.00
2023-04-25T03:05:33.399Z,1.30
2023-04-25T03:06:08.754Z,0.93
2023-04-25T03:06:41.129Z,1.20
2023-04-25T03:07:16.070Z,0.97
2023-04-25T03:07:51.038Z,1.30
2023-04-25T03:08:24.821Z,1.10
2023-04-25T03:08:59.779Z,1.10
2023-04-25T03:09:32.246Z,1.20
2023-04-25T03:10:05.441Z,1.30
2023-04-25T03:10:42.652Z,1.50
2023-04-25T03:11:16.645Z,1.30
2023-04-25T03:11:52.128Z,1.10
2023-04-25T03:12:24.999Z,1.03
2023-04-25T03:12:57.726Z,1.10
2023-04-25T03:13:33.734Z,1.20
2023-04-25T03:14:06.358Z,0.80
2023-04-25T03:14:38.764Z,1.10
2023-04-25T03:15:14.303Z,0.83
2023-04-25T03:15:48.363Z,1.20
2023-04-25T03:16:20.987Z,1.17
2023-04-25T03:16:53.559Z,1.00
2023-04-25T03:17:28.716Z,1.03
2023-04-25T03:18:01.172Z,0.97
2023-04-25T03:18:33.648Z,1.27
2023-04-25T03:19:08.779Z,1.17
2023-04-25T03:19:41.155Z,1.10
2023-04-25T03:20:13.634Z,1.00
2023-04-25T03:20:48.653Z,1.00
2023-04-25T03:21:21.008Z,1.00
2023-04-25T03:21:53.446Z,1.00
2023-04-25T03:22:28.556Z,0.80
2023-04-25T03:23:03.511Z,1.20
2023-04-25T03:23:36.473Z,0.80
2023-04-25T03:24:12.155Z,1.00
2023-04-25T03:24:44.512Z,0.90
2023-04-25T03:25:19.706Z,0.87
2023-04-25T03:25:52.595Z,1.00
2023-04-25T03:26:25.089Z,1.00
2023-04-25T03:27:00.139Z,1.07
2023-04-25T03:27:32.519Z,1.30
2023-04-25T03:28:04.907Z,1.20
2023-04-25T03:28:40.950Z,1.00
2023-04-25T03:29:13.302Z,1.10
2023-04-25T03:29:47.772Z,0.87
2023-04-25T03:30:22.850Z,0.90
2023-04-25T03:30:55.505Z,0.70
2023-04-25T03:31:27.847Z,1.00
2023-04-25T03:32:02.927Z,0.90
2023-04-25T03:32:35.470Z,1.10
2023-04-25T03:33:08.028Z,1.00
2023-04-25T03:33:43.190Z,0.90
2023-04-25T03:34:15.988Z,1.00
2023-04-25T03:34:51.314Z,1.10
2023-04-25T03:35:26.427Z,0.93
2023-04-25T03:35:59.157Z,0.90
2023-04-25T03:36:36.552Z,0.83
2023-04-25T03:37:09.204Z,1.00
2023-04-25T03:37:46.724Z,1.10
2023-04-25T03:38:29.681Z,1.10
2023-04-25T03:39:02.061Z,1.07
2023-04-25T03:39:36.952Z,1.00
2023-04-25T03:40:12.962Z,1.00
2023-04-25T03:41:26.241Z,0.90
2023-04-25T03:42:04.101Z,0.83
2023-04-25T03:42:37.090Z,1.10
2023-04-25T03:43:13.503Z,1.10
2023-04-25T03:43:51.516Z,0.80
2023-04-25T03:44:25.611Z,0.80
2023-04-25T03:45:00.577Z,0.90
2023-04-25T03:45:33.221Z,1.13
2023-04-25T03:46:06.050Z,0.90
2023-04-25T03:46:41.433Z,1.03
2023-04-25T03:47:14.182Z,0.87
2023-04-25T03:47:46.699Z,0.90
2023-04-25T03:48:22.680Z,0.80
2023-04-25T03:48:55.220Z,1.20
2023-04-25T03:49:32.530Z,1.10
2023-04-25T03:50:11.458Z,0.90
2023-04-25T03:50:43.863Z,1.00
2023-04-25T03:51:16.916Z,1.20
2023-04-25T03:51:53.491Z,0.83
2023-04-25T03:52:25.937Z,0.80
2023-04-25T03:52:59.047Z,0.97
2023-04-25T03:53:39.634Z,0.80
2023-04-25T03:54:21.109Z,0.90
2023-04-25T03:55:01.283Z,0.80
2023-04-25T03:55:36.808Z,0.80
2023-04-25T03:56:10.697Z,0.80
2023-04-25T03:56:44.650Z,1.03
2023-04-25T03:57:26.942Z,0.87
2023-04-25T03:58:00.137Z,1.00
2023-04-25T03:58:32.971Z,1.10
2023-04-25T03:59:09.037Z,0.87
2023-04-25T03:59:41.493Z,0.90
2023-04-25T04:00:17.136Z,0.80
2023-04-25T04:00:52.024Z,0.93
2023-04-25T04:01:24.579Z,0.97
2023-04-25T04:01:57.267Z,0.90
2023-04-25T04:02:32.564Z,0.93
2023-04-25T04:03:05.315Z,0.80
2023-04-25T04:03:40.831Z,0.80
2023-04-25T04:04:13.511Z,0.97
2023-04-25T04:04:46.687Z,0.90
2023-04-25T04:05:23.560Z,0.73
2023-04-25T04:06:01.678Z,0.60
2023-04-25T04:06:37.620Z,0.90
2023-04-25T04:07:23.634Z,0.90
2023-04-25T04:07:59.872Z,0.70
2023-04-25T04:08:33.186Z,0.97
2023-04-25T04:09:12.480Z,0.90
2023-04-25T04:09:47.667Z,0.70
2023-04-25T04:10:27.346Z,0.80
2023-04-25T04:11:04.184Z,0.87
2023-04-25T04:11:38.012Z,0.80
2023-04-25T04:12:10.431Z,0.90
2023-04-25T04:12:48.123Z,0.80
2023-04-25T04:13:20.652Z,0.90
2023-04-25T04:13:55.609Z,1.10
2023-04-25T04:14:28.277Z,0.70
2023-04-25T04:15:01.162Z,0.77
2023-04-25T04:15:36.769Z,0.80
2023-04-25T04:16:09.363Z,0.97
2023-04-25T04:16:41.816Z,0.73
2023-04-25T04:17:17.738Z,0.80
2023-04-25T04:17:50.385Z,0.90
2023-04-25T04:18:24.303Z,0.70
2023-04-25T04:18:59.610Z,0.90
2023-04-25T04:19:31.977Z,1.00
2023-04-25T04:20:22.874Z,0.90
2023-04-25T04:20:55.299Z,0.90
2023-04-25T04:21:28.688Z,0.80
2023-04-25T04:22:03.735Z,0.90
2023-04-25T04:22:36.272Z,0.83
2023-04-25T04:23:15.918Z,0.80
2023-04-25T04:23:49.628Z,0.70
2023-04-25T04:24:27.955Z,0.70
2023-04-25T04:25:11.273Z,0.90
2023-04-25T04:26:12.549Z,1.00
2023-04-25T04:26:59.017Z,0.80
2023-04-25T04:28:00.049Z,0.87
2023-04-25T04:28:51.846Z,0.90
2023-04-25T04:29:47.102Z,0.97
2023-04-25T04:30:25.197Z,0.90
2023-04-25T04:31:05.581Z,0.90
2023-04-25T04:31:38.242Z,1.00
2023-04-25T04:32:11.410Z,1.00
2023-04-25T04:32:47.410Z,0.70
2023-04-25T04:33:20.862Z,0.80
2023-04-25T04:33:57.625Z,0.83
2023-04-25T04:34:33.085Z,0.70
2023-04-25T04:35:07.782Z,0.63
2023-04-25T04:35:40.790Z,0.80
2023-04-25T04:36:16.956Z,0.80
2023-04-25T04:36:49.816Z,0.87
2023-04-25T04:37:22.978Z,0.80
2023-04-25T04:37:58.549Z,0.80
2023-04-25T04:38:34.908Z,0.90
2023-04-25T04:39:10.357Z,0.70
2023-04-25T04:40:07.188Z,0.90
2023-04-25T04:40:48.949Z,0.90
2023-04-25T04:41:29.443Z,0.70
2023-04-25T04:42:20.490Z,0.93
2023-04-25T04:43:03.130Z,0.80
2023-04-25T04:44:02.355Z,0.60
2023-04-25T04:44:45.877Z,0.80
2023-04-25T04:45:48.945Z,0.97
2023-04-25T04:46:43.374Z,0.67
2023-04-25T04:47:33.739Z,0.70
2023-04-25T04:48:27.417Z,0.70
2023-04-25T04:49:20.866Z,0.70
2023-04-25T04:50:11.155Z,0.80
2023-04-25T04:51:09.784Z,0.70
2023-04-25T04:51:59.747Z,0.73
2023-04-25T04:52:50.987Z,0.60
2023-04-25T04:53:44.355Z,0.60
2023-04-25T04:54:36.650Z,0.80
2023-04-25T04:55:33.892Z,0.80
2023-04-25T04:56:22.009Z,0.70
2023-04-25T04:57:03.827Z,0.70
2023-04-25T04:57:55.074Z,0.90
2023-04-25T04:58:32.850Z,0.83
2023-04-25T04:59:25.776Z,0.77
2023-04-25T05:00:28.492Z,0.60
2023-04-25T05:01:20.572Z,0.97
2023-04-25T05:02:24.642Z,0.70
2023-04-25T05:03:21.774Z,0.63
2023-04-25T05:04:17.197Z,0.97
2023-04-25T05:05:12.834Z,0.80
2023-04-25T05:06:11.878Z,0.73
2023-04-25T05:07:07.404Z,0.80
2023-04-25T05:08:02.396Z,0.83
2023-04-25T05:08:57.303Z,0.77
2023-04-25T05:09:46.623Z,0.80
2023-04-25T05:10:41.623Z,0.97
2023-04-25T05:11:34.802Z,0.70
2023-04-25T05:12:19.414Z,0.90
2023-04-25T05:13:26.770Z,0.73
2023-04-25T05:13:59.094Z,0.80
2023-04-25T05:14:47.406Z,0.80
2023-04-25T05:15:40.008Z,0.87
2023-04-25T05:16:38.546Z,0.70
2023-04-25T05:17:35.034Z,0.90
2023-04-25T05:18:17.594Z,0.80
2023-04-25T05:19:15.330Z,0.80
2023-04-25T05:19:58.315Z,0.70
2023-04-25T05:20:43.364Z,0.70
2023-04-25T05:21:41.945Z,0.70
2023-04-25T05:22:36.939Z,0.83
2023-04-25T05:23:17.946Z,1.03
2023-04-25T05:24:05.967Z,0.80
2023-04-25T05:24:38.365Z,0.97
2023-04-25T05:25:28.996Z,0.60
2023-04-25T05:26:32.028Z,0.60
2023-04-25T05:27:12.446Z,0.70
2023-04-25T05:28:06.270Z,0.80
2023-04-25T05:29:04.929Z,0.70
2023-04-25T05:29:58.532Z,0.73
2023-04-25T05:30:53.950Z,0.70
2023-04-25T05:31:35.822Z,0.70
2023-04-25T05:32:13.746Z,1.03
2023-04-25T05:32:46.436Z,0.73
2023-04-25T05:33:21.685Z,0.80
2023-04-25T05:33:54.073Z,0.93
2023-04-25T05:34:27.354Z,0.70
2023-04-25T05:35:07.985Z,0.80
2023-04-25T05:35:47.704Z,0.70
2023-04-25T05:36:23.886Z,0.80
2023-04-25T05:36:56.788Z,0.60
2023-04-25T05:37:31.750Z,0.90
2023-04-25T05:38:14.839Z,0.60
2023-04-25T05:39:07.636Z,0.97
2023-04-25T05:40:01.240Z,0.73
2023-04-25T05:41:02.770Z,0.73
2023-04-25T05:42:05.005Z,0.70
2023-04-25T05:42:56.140Z,0.83
2023-04-25T05:43:37.435Z,0.80
2023-04-25T05:44:24.032Z,0.80
2023-04-25T05:45:19.258Z,0.70
2023-04-25T05:46:14.977Z,0.63
2023-04-25T05:47:00.026Z,0.80
2023-04-25T05:47:58.398Z,0.77
2023-04-25T05:48:53.668Z,0.60
2023-04-25T05:50:03.904Z,0.70
2023-04-25T05:50:54.629Z,0.70
2023-04-25T05:51:47.258Z,0.60
2023-04-25T05:52:22.656Z,0.90
2023-04-25T05:53:10.961Z,0.80
2023-04-25T05:53:48.074Z,0.70
2023-04-25T05:54:23.743Z,0.67
2023-04-25T05:54:56.349Z,0.70
2023-04-25T05:55:28.840Z,0.60
2023-04-25T05:56:04.409Z,0.80
2023-04-25T05:56:36.818Z,0.70
2023-04-25T05:57:23.464Z,0.70
2023-04-25T05:57:55.997Z,0.60
2023-04-25T05:58:28.928Z,0.70
2023-04-25T05:59:05.141Z,0.60
2023-04-25T05:59:37.494Z,0.77
2023-04-25T06:00:11.300Z,0.70
2023-04-25T06:00:48.991Z,0.70
2023-04-25T06:01:21.784Z,0.70
2023-04-25T06:01:54.184Z,0.60
2023-04-25T06:02:30.683Z,0.70
2023-04-25T06:03:03.648Z,0.80
2023-04-25T06:03:36.716Z,0.80
2023-04-25T06:04:12.507Z,0.77
2023-04-25T06:04:45.396Z,0.80
2023-04-25T06:05:18.176Z,0.57
2023-04-25T06:05:55.472Z,0.90
2023-04-25T06:06:28.808Z,0.70
2023-04-25T06:07:01.549Z,0.70
2023-04-25T06:07:36.550Z,0.70
2023-04-25T06:08:09.751Z,0.90
2023-04-25T06:08:46.151Z,0.80
2023-04-25T06:09:18.561Z,0.70
2023-04-25T06:09:50.987Z,0.70
2023-04-25T06:10:26.335Z,0.90
2023-04-25T06:10:59.310Z,0.67
2023-04-25T06:11:31.655Z,0.70
2023-04-25T06:12:06.981Z,1.10
2023-04-25T06:12:42.124Z,0.80
2023-04-25T06:13:17.195Z,0.70
2023-04-25T06:13:49.717Z,0.80
2023-04-25T06:14:22.904Z,0.80
2023-04-25T06:14:59.376Z,0.80
2023-04-25T06:15:33.567Z,0.60
2023-04-25T06:16:07.730Z,0.80
2023-04-25T06:16:42.702Z,1.10
2023-04-25T06:17:15.105Z,0.97
2023-04-25T06:17:47.477Z,0.70
2023-04-25T06:18:22.554Z,1.30
2023-04-25T06:18:55.438Z,0.90
2023-04-25T06:19:27.786Z,1.60
2023-04-25T06:20:04.586Z,1.03
2023-04-25T06:20:38.038Z,0.83
2023-04-25T06:21:13.063Z,1.23
2023-04-25T06:21:45.835Z,1.03
2023-04-25T06:22:18.375Z,0.90
2023-04-25T06:22:53.947Z,0.80
2023-04-25T06:23:31.316Z,0.97
2023-04-25T06:24:11.456Z,1.23
2023-04-25T06:24:43.843Z,1.50
2023-04-25T06:25:16.362Z,1.63
2023-04-25T06:25:51.337Z,0.87
2023-04-25T06:26:23.764Z,1.33
2023-04-25T06:26:57.158Z,0.80
2023-04-25T06:27:32.157Z,0.60
2023-04-25T06:28:07.255Z,0.90
2023-04-25T06:28:43.100Z,2.47
2023-04-25T06:29:15.788Z,3.10
2023-04-25T06:29:51.034Z,1.23
2023-04-25T06:30:26.740Z,0.70
2023-04-25T06:31:08.318Z,0.90
2023-04-25T06:31:40.935Z,1.00
2023-04-25T06:32:13.580Z,1.23
2023-04-25T06:32:49.319Z,1.17
2023-04-25T06:33:23.310Z,2.07
2023-04-25T06:33:58.644Z,1.40
2023-04-25T06:34:32.586Z,1.80
2023-04-25T06:35:06.565Z,1.20
2023-04-25T06:35:42.512Z,2.40
2023-04-25T06:36:17.823Z,1.33
2023-04-25T06:36:53.490Z,1.13
2023-04-25T06:37:29.679Z,1.80
2023-04-25T06:38:02.282Z,2.20
2023-04-25T06:38:36.634Z,2.40
2023-04-25T06:39:11.833Z,3.60
2023-04-25T06:39:44.239Z,2.83
2023-04-25T06:40:19.804Z,2.00
2023-04-25T06:40:52.629Z,1.40
2023-04-25T06:41:28.157Z,1.90
2023-04-25T06:42:05.575Z,2.10
2023-04-25T06:42:53.897Z,1.57
2023-04-25T06:43:57.479Z,0.97
2023-04-25T06:44:35.366Z,1.17
2023-04-25T06:45:09.183Z,1.27
2023-04-25T06:45:48.241Z,2.00
2023-04-25T06:46:21.042Z,1.33
2023-04-25T06:46:58.075Z,1.30
2023-04-25T06:47:31.154Z,0.87
2023-04-25T06:48:08.922Z,1.07
2023-04-25T06:48:41.330Z,1.10
2023-04-25T06:49:16.638Z,1.00
2023-04-25T06:49:49.358Z,0.70
2023-04-25T06:50:24.417Z,1.30
2023-04-25T06:50:57.690Z,1.97
2023-04-25T06:51:34.194Z,3.70
2023-04-25T06:52:06.648Z,1.73
2023-04-25T06:52:41.774Z,2.20
2023-04-25T06:53:14.184Z,2.50
2023-04-25T06:53:49.228Z,2.60
2023-04-25T06:54:34.474Z,3.20
2023-04-25T06:55:21.851Z,2.43
2023-04-25T06:56:30.813Z,1.40
2023-04-25T06:57:09.334Z,1.40
2023-04-25T06:57:45.592Z,0.83
2023-04-25T06:58:36.609Z,0.90
2023-04-25T06:59:34.398Z,0.70
2023-04-25T07:00:10.677Z,0.90
2023-04-25T07:00:43.726Z,0.80
2023-04-25T07:01:18.814Z,0.70
2023-04-25T07:01:51.464Z,0.73
2023-04-25T07:02:30.177Z,0.80
2023-04-25T07:03:03.460Z,0.73
2023-04-25T07:03:36.125Z,0.70
2023-04-25T07:04:16.015Z,0.60
2023-04-25T07:04:54.748Z,0.70
2023-04-25T07:05:27.263Z,0.80
2023-04-25T07:06:02.264Z,0.60
2023-04-25T07:06:35.311Z,0.77
2023-04-25T07:07:10.327Z,0.77
2023-04-25T07:07:49.695Z,0.70
2023-04-25T07:08:24.621Z,0.90
2023-04-25T07:08:57.369Z,0.70
2023-04-25T07:09:30.576Z,0.70
2023-04-25T07:10:05.572Z,0.60
2023-04-25T07:10:38.102Z,0.77
2023-04-25T07:11:13.474Z,0.67
2023-04-25T07:11:46.001Z,0.60
2023-04-25T07:12:18.408Z,0.60
2023-04-25T07:12:53.419Z,0.70
2023-04-25T07:13:26.067Z,0.60
2023-04-25T07:13:58.460Z,0.60
2023-04-25T07:14:36.228Z,0.70
2023-04-25T07:15:11.249Z,0.60
2023-04-25T07:15:49.357Z,0.70
2023-04-25T07:16:23.553Z,0.80
2023-04-25T07:16:59.570Z,0.60
2023-04-25T07:17:35.505Z,0.73
2023-04-25T07:18:10.630Z,0.65
2023-04-25T07:18:43.017Z,0.80
2023-04-25T07:19:18.657Z,0.60
2023-04-25T07:19:51.216Z,0.87
2023-04-25T07:20:23.630Z,0.70
2023-04-25T07:20:58.771Z,0.70
2023-04-25T07:21:32.458Z,0.90
2023-04-25T07:22:07.658Z,0.80
2023-04-25T07:22:45.117Z,0.70
2023-04-25T07:23:17.635Z,0.70
2023-04-25T07:23:50.084Z,0.60
2023-04-25T07:24:28.973Z,0.70
2023-04-25T07:25:02.702Z,0.70
2023-04-25T07:25:39.158Z,0.80
2023-04-25T07:26:11.834Z,0.70
2023-04-25T07:26:55.065Z,0.70
2023-04-25T07:27:40.339Z,0.90
2023-04-25T07:28:19.718Z,0.70
2023-04-25T07:28:55.993Z,0.80
2023-04-25T07:29:29.611Z,0.70
2023-04-25T07:30:11.932Z,0.80
2023-04-25T07:30:45.399Z,0.80
2023-04-25T07:31:20.475Z,0.70
2023-04-25T07:31:52.853Z,0.80
2023-04-25T07:32:29.656Z,0.77
2023-04-25T07:33:02.585Z,0.60
2023-04-25T07:33:35.206Z,0.70
2023-04-25T07:34:10.637Z,0.60
2023-04-25T07:34:44.594Z,0.70
2023-04-25T07:35:17.189Z,0.83
2023-04-25T07:35:52.573Z,0.60
2023-04-25T07:36:25.016Z,0.60
2023-04-25T07:36:57.469Z,0.80
2023-04-25T07:37:35.277Z,0.70
2023-04-25T07:38:17.304Z,0.87
2023-04-25T07:38:52.584Z,0.90
2023-04-25T07:39:25.410Z,0.60
2023-04-25T07:39:57.806Z,0.73
2023-04-25T07:40:32.769Z,1.00
2023-04-25T07:41:11.248Z,0.70
2023-04-25T07:41:46.223Z,0.97
2023-04-25T07:42:24.434Z,0.70
2023-04-25T07:42:59.819Z,0.63
2023-04-25T07:43:39.391Z,0.97
2023-04-25T07:44:14.372Z,0.80
2023-04-25T07:44:46.764Z,0.90
2023-04-25T07:45:23.450Z,0.77
2023-04-25T07:45:58.527Z,0.80
2023-04-25T07:46:33.299Z,0.80
2023-04-25T07:47:08.132Z,0.80
2023-04-25T07:47:43.268Z,0.77
2023-04-25T07:48:19.027Z,0.90
2023-04-25T07:48:55.209Z,0.73
2023-04-25T07:49:27.767Z,0.70
2023-04-25T07:50:00.349Z,0.70
2023-04-25T07:50:35.499Z,0.70
2023-04-25T07:51:08.631Z,0.90
2023-04-25T07:51:44.449Z,0.73
2023-04-25T07:52:22.634Z,0.80
2023-04-25T07:53:00.145Z,0.80
2023-04-25T07:53:41.675Z,0.90
2023-04-25T07:54:18.656Z,0.97
2023-04-25T07:54:59.877Z,0.80
2023-04-25T07:55:41.420Z,0.70
2023-04-25T07:56:22.912Z,1.00
2023-04-25T07:56:57.065Z,0.80
2023-04-25T07:57:33.929Z,0.80
2023-04-25T07:58:10.051Z,0.90
2023-04-25T07:58:45.927Z,0.90
2023-04-25T07:59:23.469Z,1.27
2023-04-25T07:59:55.839Z,1.97
2023-04-25T08:00:31.260Z,1.07
2023-04-25T08:01:26.232Z,0.83
2023-04-25T08:02:03.656Z,1.00
2023-04-25T08:02:37.625Z,0.77
2023-04-25T08:03:13.934Z,0.90
2023-04-25T08:03:48.528Z,0.80
2023-04-25T08:04:30.321Z,0.80
2023-04-25T08:05:13.450Z,0.60
2023-04-25T08:05:47.792Z,0.97
2023-04-25T08:06:23.454Z,0.70
2023-04-25T08:07:08.877Z,0.80
2023-04-25T08:07:51.251Z,0.80
2023-04-25T08:08:23.744Z,0.70
2023-04-25T08:08:56.459Z,0.70
2023-04-25T08:09:37.978Z,0.80
2023-04-25T08:10:14.369Z,0.77
2023-04-25T08:10:51.743Z,0.60